首页
METAR-TAF:

METAR-TAF

机场 :

法布拉, 英格兰

纬度: 51-17N, 经度: 000-46W, 海拔: 65米

当前天气观测

该预报发布于45分钟前的17:20 UTC
风速7节,风向西转西南
温度 13°C
湿度 62%
气压 1001 hPa
能见度10公里或以上

METAR: EGLF 041720Z AUTO 25007KT 9999 SCT037/// OVC045/// 13/06 Q1001

时间: 19:05 (18:05 UTC)

预报

该预报发布于4小时和12分钟前的13:53 UTC
预报有效从04日的 15点(UTC)到 04日的 23点(UTC)
风速9节,风向西转西北
能见度10公里或以上
散云层高于3500英尺

TAF: EGLF 041353Z 0415/0423 30009KT 9999 SCT035

超过4000个机场的气象观测和天气预报(METAR&TAF报告)。

可查询的气象台以黄色和红色小点在地图上表示。

将鼠标移到小点上方,可查看气象台名称。

然后点击查看天气观测和预报。

如需切换地图:点击带黑十字的绿色按钮放大地图;点击带横线的绿色按钮缩小地图;或者点击绿色箭头查看邻近地区的地图。


METAR-TAF: